sensor_id;sensor_type;location;lat;lon;timestamp;temperature;humidity
24664;DHT22;12791;50.992;13.788;2022-11-15T04:01:04;7.30;99.90
24664;DHT22;12791;50.992;13.788;2022-11-15T04:03:30;7.30;99.90
24664;DHT22;12791;50.992;13.788;2022-11-15T04:05:57;7.30;99.90
24664;DHT22;12791;50.992;13.788;2022-11-15T04:08:24;7.30;99.90
24664;DHT22;12791;50.992;13.788;2022-11-15T04:10:51;7.30;99.90
24664;DHT22;12791;50.992;13.788;2022-11-15T04:13:18;7.10;99.90
24664;DHT22;12791;50.992;13.788;2022-11-15T04:15:44;6.90;99.90
24664;DHT22;12791;50.992;13.788;2022-11-15T04:18:12;7.20;99.90
24664;DHT22;12791;50.992;13.788;2022-11-15T04:20:39;7.30;99.90
24664;DHT22;12791;50.992;13.788;2022-11-15T04:23:23;7.20;99.90
24664;DHT22;12791;50.992;13.788;2022-11-15T04:26:11;7.20;99.90
24664;DHT22;12791;50.992;13.788;2022-11-15T04:28:38;7.20;99.90
24664;DHT22;12791;50.992;13.788;2022-11-15T04:31:26;7.00;99.90
24664;DHT22;12791;50.992;13.788;2022-11-15T04:33:54;7.50;99.90
24664;DHT22;12791;50.992;13.788;2022-11-15T04:36:22;7.10;99.90
24664;DHT22;12791;50.992;13.788;2022-11-15T04:39:06;7.40;99.90
24664;DHT22;12791;50.992;13.788;2022-11-15T04:41:33;7.20;99.90
24664;DHT22;12791;50.992;13.788;2022-11-15T04:44:00;7.10;99.90
24664;DHT22;12791;50.992;13.788;2022-11-15T04:46:27;7.20;99.90
24664;DHT22;12791;50.992;13.788;2022-11-15T04:48:55;7.10;99.90
24664;DHT22;12791;50.992;13.788;2022-11-15T04:51:22;7.50;99.90
24664;DHT22;12791;50.992;13.788;2022-11-15T04:53:49;7.20;99.90
24664;DHT22;12791;50.992;13.788;2022-11-15T04:56:15;7.20;99.90
24664;DHT22;12791;50.992;13.788;2022-11-15T04:58:42;7.30;99.90
24664;DHT22;12791;50.992;13.788;2022-11-15T05:01:10;7.10;99.90
24664;DHT22;12791;50.992;13.788;2022-11-15T05:03:37;7.20;99.90
24664;DHT22;12791;50.992;13.788;2022-11-15T05:06:23;7.10;99.90
24664;DHT22;12791;50.992;13.788;2022-11-15T05:08:49;7.20;99.90
24664;DHT22;12791;50.992;13.788;2022-11-15T05:11:16;6.70;99.90
24664;DHT22;12791;50.992;13.788;2022-11-15T05:13:43;7.10;99.90
24664;DHT22;12791;50.992;13.788;2022-11-15T05:16:10;7.50;99.90
24664;DHT22;12791;50.992;13.788;2022-11-15T05:18:37;7.10;99.90
24664;DHT22;12791;50.992;13.788;2022-11-15T05:21:07;7.30;99.90
24664;DHT22;12791;50.992;13.788;2022-11-15T05:23:36;7.30;99.90
24664;DHT22;12791;50.992;13.788;2022-11-15T05:26:05;7.20;99.90
24664;DHT22;12791;50.992;13.788;2022-11-15T05:28:32;7.10;99.90
24664;DHT22;12791;50.992;13.788;2022-11-15T05:31:01;7.30;99.90
24664;DHT22;12791;50.992;13.788;2022-11-15T05:33:27;7.30;99.90
24664;DHT22;12791;50.992;13.788;2022-11-15T05:35:59;7.20;99.90
24664;DHT22;12791;50.992;13.788;2022-11-15T05:38:26;7.10;99.90
24664;DHT22;12791;50.992;13.788;2022-11-15T05:40:55;6.60;99.90
24664;DHT22;12791;50.992;13.788;2022-11-15T05:43:22;7.00;99.90
24664;DHT22;12791;50.992;13.788;2022-11-15T05:45:49;7.30;99.90
24664;DHT22;12791;50.992;13.788;2022-11-15T05:48:17;7.00;99.90
24664;DHT22;12791;50.992;13.788;2022-11-15T05:50:46;6.90;99.90
24664;DHT22;12791;50.992;13.788;2022-11-15T05:53:16;7.20;99.90
24664;DHT22;12791;50.992;13.788;2022-11-15T05:55:45;6.80;99.90
24664;DHT22;12791;50.992;13.788;2022-11-15T05:58:13;7.00;99.90
24664;DHT22;12791;50.992;13.788;2022-11-15T06:00:41;6.90;99.90
24664;DHT22;12791;50.992;13.788;2022-11-15T06:03:08;7.00;99.90
24664;DHT22;12791;50.992;13.788;2022-11-15T06:05:36;7.20;99.90
24664;DHT22;12791;50.992;13.788;2022-11-15T06:08:02;6.60;99.90
24664;DHT22;12791;50.992;13.788;2022-11-15T06:10:29;7.00;99.90
24664;DHT22;12791;50.992;13.788;2022-11-15T06:12:57;7.00;99.90
24664;DHT22;12791;50.992;13.788;2022-11-15T06:15:26;7.00;99.90
24664;DHT22;12791;50.992;13.788;2022-11-15T06:17:56;7.00;99.90
24664;DHT22;12791;50.992;13.788;2022-11-15T06:20:23;7.10;99.90
24664;DHT22;12791;50.992;13.788;2022-11-15T06:22:50;7.20;99.90
24664;DHT22;12791;50.992;13.788;2022-11-15T06:25:17;7.10;99.90
24664;DHT22;12791;50.992;13.788;2022-11-15T06:27:44;7.00;99.90
24664;DHT22;12791;50.992;13.788;2022-11-15T06:30:17;7.00;99.90
24664;DHT22;12791;50.992;13.788;2022-11-15T06:32:45;7.00;99.90
24664;DHT22;12791;50.992;13.788;2022-11-15T06:35:12;7.00;99.90
24664;DHT22;12791;50.992;13.788;2022-11-15T06:37:39;7.00;99.90
24664;DHT22;12791;50.992;13.788;2022-11-15T06:40:07;6.90;99.90
24664;DHT22;12791;50.992;13.788;2022-11-15T06:42:34;7.20;99.90
24664;DHT22;12791;50.992;13.788;2022-11-15T06:45:01;7.10;99.90
24664;DHT22;12791;50.992;13.788;2022-11-15T06:47:28;7.00;99.90
24664;DHT22;12791;50.992;13.788;2022-11-15T06:49:56;7.40;99.90
24664;DHT22;12791;50.992;13.788;2022-11-15T06:52:23;7.00;99.90
24664;DHT22;12791;50.992;13.788;2022-11-15T06:54:50;7.00;99.90
24664;DHT22;12791;50.992;13.788;2022-11-15T06:57:16;7.00;99.90
24664;DHT22;12791;50.992;13.788;2022-11-15T06:59:43;7.00;99.90
24664;DHT22;12791;50.992;13.788;2022-11-15T07:02:12;6.60;99.90
24664;DHT22;12791;50.992;13.788;2022-11-15T07:04:39;7.30;99.90
24664;DHT22;12791;50.992;13.788;2022-11-15T07:07:07;7.20;99.90
24664;DHT22;12791;50.992;13.788;2022-11-15T07:09:34;7.10;99.90
24664;DHT22;12791;50.992;13.788;2022-11-15T07:12:01;7.20;99.90
24664;DHT22;12791;50.992;13.788;2022-11-15T07:14:28;7.10;99.90
24664;DHT22;12791;50.992;13.788;2022-11-15T07:16:55;7.30;99.90
24664;DHT22;12791;50.992;13.788;2022-11-15T07:19:21;7.50;99.90
24664;DHT22;12791;50.992;13.788;2022-11-15T07:21:48;7.30;99.90
24664;DHT22;12791;50.992;13.788;2022-11-15T07:24:16;7.10;99.90
24664;DHT22;12791;50.992;13.788;2022-11-15T07:26:43;7.20;99.90
24664;DHT22;12791;50.992;13.788;2022-11-15T07:29:10;7.20;99.90
24664;DHT22;12791;50.992;13.788;2022-11-15T07:31:37;7.00;99.90
24664;DHT22;12791;50.992;13.788;2022-11-15T07:34:04;6.90;99.90
24664;DHT22;12791;50.992;13.788;2022-11-15T07:36:31;7.10;99.90
24664;DHT22;12791;50.992;13.788;2022-11-15T07:38:57;7.30;99.90
24664;DHT22;12791;50.992;13.788;2022-11-15T07:41:25;7.20;99.90
24664;DHT22;12791;50.992;13.788;2022-11-15T07:43:52;7.10;99.90
24664;DHT22;12791;50.992;13.788;2022-11-15T07:46:19;7.10;99.90
24664;DHT22;12791;50.992;13.788;2022-11-15T07:48:46;7.00;99.90
24664;DHT22;12791;50.992;13.788;2022-11-15T07:51:13;7.40;99.90
24664;DHT22;12791;50.992;13.788;2022-11-15T07:53:40;7.40;99.90
24664;DHT22;12791;50.992;13.788;2022-11-15T07:56:07;7.40;99.90
24664;DHT22;12791;50.992;13.788;2022-11-15T07:58:35;7.60;99.90
24664;DHT22;12791;50.992;13.788;2022-11-15T08:01:02;7.60;99.90
24664;DHT22;12791;50.992;13.788;2022-11-15T08:03:30;7.60;99.90
24664;DHT22;12791;50.992;13.788;2022-11-15T08:05:56;7.60;99.90
24664;DHT22;12791;50.992;13.788;2022-11-15T08:08:23;7.70;99.90
24664;DHT22;12791;50.992;13.788;2022-11-15T08:10:50;7.50;99.90
24664;DHT22;12791;50.992;13.788;2022-11-15T08:13:17;7.80;99.90
24664;DHT22;12791;50.992;13.788;2022-11-15T08:15:45;7.70;99.90
24664;DHT22;12791;50.992;13.788;2022-11-15T08:18:14;7.90;99.90
24664;DHT22;12791;50.992;13.788;2022-11-15T08:20:41;8.10;99.90
24664;DHT22;12791;50.992;13.788;2022-11-15T08:23:11;7.60;99.90
24664;DHT22;12791;50.992;13.788;2022-11-15T08:25:38;7.50;99.90
24664;DHT22;12791;50.992;13.788;2022-11-15T08:28:06;8.30;99.90
24664;DHT22;12791;50.992;13.788;2022-11-15T08:30:36;7.80;99.90
24664;DHT22;12791;50.992;13.788;2022-11-15T08:33:04;8.40;99.90
24664;DHT22;12791;50.992;13.788;2022-11-15T08:35:31;8.40;99.90
24664;DHT22;12791;50.992;13.788;2022-11-15T08:37:58;8.30;99.90
24664;DHT22;12791;50.992;13.788;2022-11-15T08:40:25;8.30;99.90
24664;DHT22;12791;50.992;13.788;2022-11-15T08:42:52;8.50;99.90
24664;DHT22;12791;50.992;13.788;2022-11-15T08:45:19;8.30;99.90
24664;DHT22;12791;50.992;13.788;2022-11-15T08:47:46;8.30;99.90
24664;DHT22;12791;50.992;13.788;2022-11-15T08:50:15;8.60;99.90
24664;DHT22;12791;50.992;13.788;2022-11-15T08:52:42;8.30;99.90
24664;DHT22;12791;50.992;13.788;2022-11-15T08:55:09;8.90;99.90
24664;DHT22;12791;50.992;13.788;2022-11-15T08:57:35;9.30;99.90
24664;DHT22;12791;50.992;13.788;2022-11-15T09:00:04;9.30;99.90
24664;DHT22;12791;50.992;13.788;2022-11-15T09:02:30;9.10;99.90
24664;DHT22;12791;50.992;13.788;2022-11-15T09:04:58;9.20;99.90
24664;DHT22;12791;50.992;13.788;2022-11-15T09:07:26;9.00;99.90
24664;DHT22;12791;50.992;13.788;2022-11-15T09:09:55;9.30;99.90
24664;DHT22;12791;50.992;13.788;2022-11-15T09:12:22;9.00;99.90
24664;DHT22;12791;50.992;13.788;2022-11-15T09:14:49;8.60;99.90
24664;DHT22;12791;50.992;13.788;2022-11-15T09:17:16;9.10;99.90
24664;DHT22;12791;50.992;13.788;2022-11-15T09:19:43;9.30;99.90
24664;DHT22;12791;50.992;13.788;2022-11-15T09:22:10;9.20;99.90
24664;DHT22;12791;50.992;13.788;2022-11-15T09:24:38;9.20;99.90
24664;DHT22;12791;50.992;13.788;2022-11-15T09:27:04;9.20;99.90
24664;DHT22;12791;50.992;13.788;2022-11-15T09:29:31;9.50;99.90
24664;DHT22;12791;50.992;13.788;2022-11-15T09:31:59;9.40;99.90
24664;DHT22;12791;50.992;13.788;2022-11-15T09:34:26;9.30;99.90
24664;DHT22;12791;50.992;13.788;2022-11-15T09:36:53;9.60;99.90
24664;DHT22;12791;50.992;13.788;2022-11-15T09:39:19;9.40;99.90
24664;DHT22;12791;50.992;13.788;2022-11-15T09:42:09;9.30;99.90
24664;DHT22;12791;50.992;13.788;2022-11-15T09:45:03;9.40;99.90
24664;DHT22;12791;50.992;13.788;2022-11-15T09:47:57;9.40;99.90
24664;DHT22;12791;50.992;13.788;2022-11-15T09:50:33;9.50;99.90
24664;DHT22;12791;50.992;13.788;2022-11-15T09:53:01;9.60;99.90
24664;DHT22;12791;50.992;13.788;2022-11-15T09:55:37;9.40;99.90
24664;DHT22;12791;50.992;13.788;2022-11-15T09:58:15;9.60;99.90
24664;DHT22;12791;50.992;13.788;2022-11-15T10:00:47;9.70;99.90
24664;DHT22;12791;50.992;13.788;2022-11-15T10:03:23;9.50;99.90
24664;DHT22;12791;50.992;13.788;2022-11-15T10:05:55;9.70;99.90
24664;DHT22;12791;50.992;13.788;2022-11-15T10:08:35;9.90;99.90
24664;DHT22;12791;50.992;13.788;2022-11-15T10:11:06;9.60;99.90
24664;DHT22;12791;50.992;13.788;2022-11-15T10:13:37;9.60;99.90
24664;DHT22;12791;50.992;13.788;2022-11-15T10:16:12;9.50;99.90
24664;DHT22;12791;50.992;13.788;2022-11-15T10:18:51;9.80;99.90
24664;DHT22;12791;50.992;13.788;2022-11-15T10:21:21;9.80;99.90
24664;DHT22;12791;50.992;13.788;2022-11-15T10:23:50;9.70;99.90
24664;DHT22;12791;50.992;13.788;2022-11-15T10:26:17;9.70;99.90
24664;DHT22;12791;50.992;13.788;2022-11-15T10:28:45;9.80;99.90
24664;DHT22;12791;50.992;13.788;2022-11-15T10:31:22;9.70;99.90
24664;DHT22;12791;50.992;13.788;2022-11-15T10:33:51;9.70;99.90
24664;DHT22;12791;50.992;13.788;2022-11-15T10:36:22;9.70;99.90
24664;DHT22;12791;50.992;13.788;2022-11-15T10:38:56;9.90;99.90
24664;DHT22;12791;50.992;13.788;2022-11-15T10:41:36;9.70;99.90
24664;DHT22;12791;50.992;13.788;2022-11-15T10:44:19;9.80;99.90
24664;DHT22;12791;50.992;13.788;2022-11-15T10:46:47;9.90;99.90
24664;DHT22;12791;50.992;13.788;2022-11-15T10:49:17;9.80;99.90
24664;DHT22;12791;50.992;13.788;2022-11-15T10:51:46;9.90;99.90
24664;DHT22;12791;50.992;13.788;2022-11-15T10:54:19;9.90;99.90
24664;DHT22;12791;50.992;13.788;2022-11-15T10:56:49;9.90;99.90
24664;DHT22;12791;50.992;13.788;2022-11-15T10:59:24;10.10;99.90
24664;DHT22;12791;50.992;13.788;2022-11-15T11:01:52;9.90;99.90
24664;DHT22;12791;50.992;13.788;2022-11-15T11:04:19;9.80;99.90
24664;DHT22;12791;50.992;13.788;2022-11-15T11:06:47;10.00;99.90
24664;DHT22;12791;50.992;13.788;2022-11-15T11:09:27;9.90;99.90
24664;DHT22;12791;50.992;13.788;2022-11-15T11:11:54;9.90;99.90
24664;DHT22;12791;50.992;13.788;2022-11-15T11:14:24;10.20;99.90
24664;DHT22;12791;50.992;13.788;2022-11-15T11:16:55;10.10;99.90
24664;DHT22;12791;50.992;13.788;2022-11-15T11:19:40;10.10;99.90
24664;DHT22;12791;50.992;13.788;2022-11-15T11:22:18;10.10;99.90
24664;DHT22;12791;50.992;13.788;2022-11-15T11:24:55;9.80;99.90
24664;DHT22;12791;50.992;13.788;2022-11-15T11:27:35;10.10;99.90
24664;DHT22;12791;50.992;13.788;2022-11-15T11:30:09;9.60;99.90
24664;DHT22;12791;50.992;13.788;2022-11-15T11:35:43;10.10;99.90
24664;DHT22;12791;50.992;13.788;2022-11-15T11:38:22;10.00;99.90
24664;DHT22;12791;50.992;13.788;2022-11-15T11:41:04;10.10;99.90
24664;DHT22;12791;50.992;13.788;2022-11-15T11:43:37;10.10;99.90
24664;DHT22;12791;50.992;13.788;2022-11-15T11:46:24;10.00;99.90
24664;DHT22;12791;50.992;13.788;2022-11-15T11:48:58;10.20;99.90
24664;DHT22;12791;50.992;13.788;2022-11-15T11:51:32;10.00;99.90
24664;DHT22;12791;50.992;13.788;2022-11-15T11:54:03;10.20;99.90
24664;DHT22;12791;50.992;13.788;2022-11-15T11:56:33;10.20;99.90
24664;DHT22;12791;50.992;13.788;2022-11-15T11:59:05;10.30;99.90
24664;DHT22;12791;50.992;13.788;2022-11-15T12:01:41;10.10;99.90
24664;DHT22;12791;50.992;13.788;2022-11-15T12:04:13;10.10;99.90
24664;DHT22;12791;50.992;13.788;2022-11-15T12:06:44;10.10;99.90
24664;DHT22;12791;50.992;13.788;2022-11-15T12:09:15;10.10;99.90
24664;DHT22;12791;50.992;13.788;2022-11-15T12:11:50;10.10;99.90
24664;DHT22;12791;50.992;13.788;2022-11-15T12:14:27;10.00;99.90
24664;DHT22;12791;50.992;13.788;2022-11-15T12:16:57;10.10;99.90
24664;DHT22;12791;50.992;13.788;2022-11-15T12:19:24;10.10;99.90
24664;DHT22;12791;50.992;13.788;2022-11-15T12:21:55;10.10;99.90
24664;DHT22;12791;50.992;13.788;2022-11-15T12:24:31;10.30;99.90
24664;DHT22;12791;50.992;13.788;2022-11-15T12:27:03;10.10;99.90
24664;DHT22;12791;50.992;13.788;2022-11-15T12:29:35;10.10;99.90
24664;DHT22;12791;50.992;13.788;2022-11-15T12:32:05;10.30;99.90
24664;DHT22;12791;50.992;13.788;2022-11-15T12:34:43;9.90;99.90
24664;DHT22;12791;50.992;13.788;2022-11-15T12:37:33;10.40;99.90
24664;DHT22;12791;50.992;13.788;2022-11-15T12:40:16;10.10;99.90
24664;DHT22;12791;50.992;13.788;2022-11-15T12:43:02;10.10;99.90
24664;DHT22;12791;50.992;13.788;2022-11-15T12:45:31;10.10;99.90
24664;DHT22;12791;50.992;13.788;2022-11-15T12:54:57;10.10;99.90
24664;DHT22;12791;50.992;13.788;2022-11-15T12:57:36;10.00;99.90
24664;DHT22;12791;50.992;13.788;2022-11-15T13:06:10;10.00;99.90
24664;DHT22;12791;50.992;13.788;2022-11-15T13:08:56;10.00;99.90
24664;DHT22;12791;50.992;13.788;2022-11-15T13:11:50;10.00;99.90
24664;DHT22;12791;50.992;13.788;2022-11-15T13:14:43;10.00;99.90
24664;DHT22;12791;50.992;13.788;2022-11-15T13:17:24;9.90;99.90
24664;DHT22;12791;50.992;13.788;2022-11-15T13:20:00;9.80;99.90
24664;DHT22;12791;50.992;13.788;2022-11-15T13:22:27;9.90;99.90
24664;DHT22;12791;50.992;13.788;2022-11-15T13:25:18;9.90;99.90
24664;DHT22;12791;50.992;13.788;2022-11-15T13:27:47;9.90;99.90
24664;DHT22;12791;50.992;13.788;2022-11-15T13:30:20;9.90;99.90
24664;DHT22;12791;50.992;13.788;2022-11-15T13:32:47;9.80;99.90
24664;DHT22;12791;50.992;13.788;2022-11-15T13:35:20;9.80;99.90
24664;DHT22;12791;50.992;13.788;2022-11-15T13:37:48;9.20;99.90
24664;DHT22;12791;50.992;13.788;2022-11-15T13:40:26;9.60;99.90
24664;DHT22;12791;50.992;13.788;2022-11-15T13:42:57;9.60;99.90
24664;DHT22;12791;50.992;13.788;2022-11-15T13:45:24;9.60;99.90
24664;DHT22;12791;50.992;13.788;2022-11-15T13:47:53;9.50;99.90
24664;DHT22;12791;50.992;13.788;2022-11-15T13:50:22;9.50;99.90
24664;DHT22;12791;50.992;13.788;2022-11-15T13:52:51;9.50;99.90
24664;DHT22;12791;50.992;13.788;2022-11-15T13:55:20;9.70;99.90
24664;DHT22;12791;50.992;13.788;2022-11-15T13:57:49;9.60;99.90
24664;DHT22;12791;50.992;13.788;2022-11-15T14:00:37;9.40;99.90
24664;DHT22;12791;50.992;13.788;2022-11-15T14:03:12;9.30;99.90
24664;DHT22;12791;50.992;13.788;2022-11-15T14:05:41;9.40;99.90
24664;DHT22;12791;50.992;13.788;2022-11-15T14:08:22;9.30;99.90
24664;DHT22;12791;50.992;13.788;2022-11-15T14:11:06;9.30;99.90
24664;DHT22;12791;50.992;13.788;2022-11-15T14:13:33;9.30;99.90
24664;DHT22;12791;50.992;13.788;2022-11-15T14:16:15;9.20;99.90
24664;DHT22;12791;50.992;13.788;2022-11-15T14:18:44;9.50;99.90
24664;DHT22;12791;50.992;13.788;2022-11-15T14:21:12;8.70;99.90
24664;DHT22;12791;50.992;13.788;2022-11-15T14:23:39;9.20;99.90
24664;DHT22;12791;50.992;13.788;2022-11-15T14:26:10;9.20;99.90
24664;DHT22;12791;50.992;13.788;2022-11-15T14:28:38;9.10;99.90
24664;DHT22;12791;50.992;13.788;2022-11-15T14:31:10;9.10;99.90
24664;DHT22;12791;50.992;13.788;2022-11-15T14:33:39;9.00;99.90
24664;DHT22;12791;50.992;13.788;2022-11-15T14:36:11;9.00;99.90
24664;DHT22;12791;50.992;13.788;2022-11-15T14:38:39;8.90;99.90
24664;DHT22;12791;50.992;13.788;2022-11-15T14:41:08;9.10;99.90
24664;DHT22;12791;50.992;13.788;2022-11-15T14:43:36;8.90;99.90
24664;DHT22;12791;50.992;13.788;2022-11-15T14:46:04;8.90;99.90
24664;DHT22;12791;50.992;13.788;2022-11-15T14:48:31;8.90;99.90
24664;DHT22;12791;50.992;13.788;2022-11-15T14:50:59;9.00;99.90
24664;DHT22;12791;50.992;13.788;2022-11-15T14:53:26;8.50;99.90
24664;DHT22;12791;50.992;13.788;2022-11-15T14:55:52;8.80;99.90
24664;DHT22;12791;50.992;13.788;2022-11-15T14:58:19;9.00;99.90
24664;DHT22;12791;50.992;13.788;2022-11-15T15:00:46;8.60;99.90
24664;DHT22;12791;50.992;13.788;2022-11-15T15:03:13;8.70;99.90
24664;DHT22;12791;50.992;13.788;2022-11-15T15:05:41;8.70;99.90
24664;DHT22;12791;50.992;13.788;2022-11-15T15:08:10;8.60;99.90
24664;DHT22;12791;50.992;13.788;2022-11-15T15:10:38;8.50;99.90
24664;DHT22;12791;50.992;13.788;2022-11-15T15:13:08;8.10;99.90
24664;DHT22;12791;50.992;13.788;2022-11-15T15:15:37;8.50;99.90
24664;DHT22;12791;50.992;13.788;2022-11-15T15:18:05;8.50;99.90
24664;DHT22;12791;50.992;13.788;2022-11-15T15:20:34;8.50;99.90
24664;DHT22;12791;50.992;13.788;2022-11-15T15:23:01;8.70;99.90
24664;DHT22;12791;50.992;13.788;2022-11-15T15:25:32;8.30;99.90
24664;DHT22;12791;50.992;13.788;2022-11-15T15:28:00;8.40;99.90
24664;DHT22;12791;50.992;13.788;2022-11-15T15:30:29;8.50;99.90
24664;DHT22;12791;50.992;13.788;2022-11-15T15:32:56;8.30;99.90
24664;DHT22;12791;50.992;13.788;2022-11-15T15:35:23;8.30;99.90
24664;DHT22;12791;50.992;13.788;2022-11-15T15:37:55;8.20;99.90
24664;DHT22;12791;50.992;13.788;2022-11-15T15:40:23;8.20;99.90
24664;DHT22;12791;50.992;13.788;2022-11-15T15:42:51;8.40;99.90
24664;DHT22;12791;50.992;13.788;2022-11-15T15:45:18;8.30;99.90
24664;DHT22;12791;50.992;13.788;2022-11-15T15:47:46;8.10;99.90
24664;DHT22;12791;50.992;13.788;2022-11-15T15:50:21;8.00;99.90
24664;DHT22;12791;50.992;13.788;2022-11-15T15:52:47;8.00;99.90
24664;DHT22;12791;50.992;13.788;2022-11-15T15:55:14;8.00;99.90
24664;DHT22;12791;50.992;13.788;2022-11-15T15:57:42;8.00;99.90
24664;DHT22;12791;50.992;13.788;2022-11-15T16:00:11;8.10;99.90
24664;DHT22;12791;50.992;13.788;2022-11-15T16:02:38;8.00;99.90
24664;DHT22;12791;50.992;13.788;2022-11-15T16:05:05;7.60;99.90
24664;DHT22;12791;50.992;13.788;2022-11-15T16:07:32;7.90;99.90
24664;DHT22;12791;50.992;13.788;2022-11-15T16:09:59;8.10;99.90
24664;DHT22;12791;50.992;13.788;2022-11-15T16:12:30;7.90;99.90
24664;DHT22;12791;50.992;13.788;2022-11-15T16:14:57;8.00;99.90
24664;DHT22;12791;50.992;13.788;2022-11-15T16:17:28;7.80;99.90
24664;DHT22;12791;50.992;13.788;2022-11-15T16:19:56;7.40;99.90
24664;DHT22;12791;50.992;13.788;2022-11-15T16:22:23;7.70;99.90
24664;DHT22;12791;50.992;13.788;2022-11-15T16:24:50;7.60;99.90
24664;DHT22;12791;50.992;13.788;2022-11-15T16:27:19;7.60;99.90
24664;DHT22;12791;50.992;13.788;2022-11-15T16:29:47;7.50;99.90
24664;DHT22;12791;50.992;13.788;2022-11-15T16:32:14;7.20;99.90
24664;DHT22;12791;50.992;13.788;2022-11-15T16:34:42;7.50;99.90
24664;DHT22;12791;50.992;13.788;2022-11-15T16:37:20;7.50;99.90
24664;DHT22;12791;50.992;13.788;2022-11-15T16:39:48;7.50;99.90
24664;DHT22;12791;50.992;13.788;2022-11-15T16:42:14;7.30;99.90
24664;DHT22;12791;50.992;13.788;2022-11-15T16:44:41;6.90;99.90
24664;DHT22;12791;50.992;13.788;2022-11-15T16:47:15;7.60;99.90
24664;DHT22;12791;50.992;13.788;2022-11-15T16:49:45;7.30;99.90
24664;DHT22;12791;50.992;13.788;2022-11-15T16:52:12;7.30;99.90
24664;DHT22;12791;50.992;13.788;2022-11-15T16:54:38;7.50;99.90
24664;DHT22;12791;50.992;13.788;2022-11-15T16:57:06;7.10;99.90
24664;DHT22;12791;50.992;13.788;2022-11-15T16:59:33;7.30;99.90
24664;DHT22;12791;50.992;13.788;2022-11-15T17:02:00;7.30;99.90
24664;DHT22;12791;50.992;13.788;2022-11-15T17:04:27;7.20;99.90
24664;DHT22;12791;50.992;13.788;2022-11-15T17:06:59;7.30;99.90
24664;DHT22;12791;50.992;13.788;2022-11-15T17:09:26;6.70;99.90
24664;DHT22;12791;50.992;13.788;2022-11-15T17:11:53;7.10;99.90
24664;DHT22;12791;50.992;13.788;2022-11-15T17:14:20;7.20;99.90
24664;DHT22;12791;50.992;13.788;2022-11-15T17:16:46;7.20;99.90
24664;DHT22;12791;50.992;13.788;2022-11-15T17:19:14;7.00;99.90
24664;DHT22;12791;50.992;13.788;2022-11-15T17:21:42;6.80;99.90
24664;DHT22;12791;50.992;13.788;2022-11-15T17:24:10;7.10;99.90
24664;DHT22;12791;50.992;13.788;2022-11-15T17:26:37;6.80;99.90
24664;DHT22;12791;50.992;13.788;2022-11-15T17:29:05;7.40;99.90
24664;DHT22;12791;50.992;13.788;2022-11-15T17:31:33;7.30;99.90
24664;DHT22;12791;50.992;13.788;2022-11-15T17:34:01;7.00;99.90
24664;DHT22;12791;50.992;13.788;2022-11-15T17:36:28;7.10;99.90
24664;DHT22;12791;50.992;13.788;2022-11-15T17:38:55;7.10;99.90
24664;DHT22;12791;50.992;13.788;2022-11-15T17:41:23;6.60;99.90
24664;DHT22;12791;50.992;13.788;2022-11-15T17:43:50;7.10;99.90
24664;DHT22;12791;50.992;13.788;2022-11-15T17:46:19;6.90;99.90
24664;DHT22;12791;50.992;13.788;2022-11-15T17:48:46;6.70;99.90
24664;DHT22;12791;50.992;13.788;2022-11-15T17:51:15;6.90;99.90
24664;DHT22;12791;50.992;13.788;2022-11-15T17:53:44;6.90;99.90
24664;DHT22;12791;50.992;13.788;2022-11-15T17:56:12;6.80;99.90
24664;DHT22;12791;50.992;13.788;2022-11-15T17:58:45;6.90;99.90
24664;DHT22;12791;50.992;13.788;2022-11-15T18:01:16;6.80;99.90
24664;DHT22;12791;50.992;13.788;2022-11-15T18:03:43;6.90;99.90
24664;DHT22;12791;50.992;13.788;2022-11-15T18:06:10;6.90;99.90
24664;DHT22;12791;50.992;13.788;2022-11-15T18:08:38;7.00;99.90
24664;DHT22;12791;50.992;13.788;2022-11-15T18:11:07;6.90;99.90
24664;DHT22;12791;50.992;13.788;2022-11-15T18:13:35;6.80;99.90
24664;DHT22;12791;50.992;13.788;2022-11-15T18:16:04;7.00;99.90
24664;DHT22;12791;50.992;13.788;2022-11-15T18:18:33;7.10;99.90
24664;DHT22;12791;50.992;13.788;2022-11-15T18:21:04;6.90;99.90
24664;DHT22;12791;50.992;13.788;2022-11-15T18:23:33;6.90;99.90
24664;DHT22;12791;50.992;13.788;2022-11-15T18:26:00;6.80;99.90
24664;DHT22;12791;50.992;13.788;2022-11-15T18:28:31;6.90;99.90
24664;DHT22;12791;50.992;13.788;2022-11-15T18:30:58;7.10;99.90
24664;DHT22;12791;50.992;13.788;2022-11-15T18:33:27;6.90;99.90
24664;DHT22;12791;50.992;13.788;2022-11-15T18:35:59;6.90;99.90
24664;DHT22;12791;50.992;13.788;2022-11-15T18:38:26;6.90;99.90
24664;DHT22;12791;50.992;13.788;2022-11-15T18:40:56;7.00;99.90
24664;DHT22;12791;50.992;13.788;2022-11-15T18:43:22;6.80;99.90
24664;DHT22;12791;50.992;13.788;2022-11-15T18:45:49;6.80;99.90
24664;DHT22;12791;50.992;13.788;2022-11-15T18:48:16;6.70;99.90
24664;DHT22;12791;50.992;13.788;2022-11-15T18:50:44;6.70;99.90
24664;DHT22;12791;50.992;13.788;2022-11-15T18:53:11;7.00;99.90
24664;DHT22;12791;50.992;13.788;2022-11-15T18:55:37;6.80;99.90
24664;DHT22;12791;50.992;13.788;2022-11-15T18:58:04;6.50;99.90
24664;DHT22;12791;50.992;13.788;2022-11-15T19:00:31;6.50;99.90
24664;DHT22;12791;50.992;13.788;2022-11-15T19:02:58;6.30;99.90
24664;DHT22;12791;50.992;13.788;2022-11-15T19:05:24;6.30;99.90
24664;DHT22;12791;50.992;13.788;2022-11-15T19:07:52;6.30;99.90
24664;DHT22;12791;50.992;13.788;2022-11-15T19:10:19;6.30;99.90
24664;DHT22;12791;50.992;13.788;2022-11-15T19:12:46;6.30;99.90
24664;DHT22;12791;50.992;13.788;2022-11-15T19:15:13;6.20;99.90
24664;DHT22;12791;50.992;13.788;2022-11-15T19:17:40;6.30;99.90
24664;DHT22;12791;50.992;13.788;2022-11-15T19:20:08;6.20;99.90
24664;DHT22;12791;50.992;13.788;2022-11-15T19:22:35;6.20;99.90
24664;DHT22;12791;50.992;13.788;2022-11-15T19:25:04;6.20;99.90
24664;DHT22;12791;50.992;13.788;2022-11-15T19:27:32;6.20;99.90
24664;DHT22;12791;50.992;13.788;2022-11-15T19:29:59;6.20;99.90
24664;DHT22;12791;50.992;13.788;2022-11-15T19:32:27;6.30;99.90
24664;DHT22;12791;50.992;13.788;2022-11-15T19:34:53;6.30;99.90
24664;DHT22;12791;50.992;13.788;2022-11-15T19:37:20;6.20;99.90
24664;DHT22;12791;50.992;13.788;2022-11-15T19:39:47;6.10;99.90
24664;DHT22;12791;50.992;13.788;2022-11-15T19:42:15;5.60;99.90
24664;DHT22;12791;50.992;13.788;2022-11-15T19:44:42;6.00;99.90
24664;DHT22;12791;50.992;13.788;2022-11-15T19:47:09;6.10;99.90
24664;DHT22;12791;50.992;13.788;2022-11-15T19:49:35;6.20;99.90
24664;DHT22;12791;50.992;13.788;2022-11-15T19:52:02;6.00;99.90
24664;DHT22;12791;50.992;13.788;2022-11-15T19:54:29;6.10;99.90
24664;DHT22;12791;50.992;13.788;2022-11-15T19:56:56;5.90;99.90
24664;DHT22;12791;50.992;13.788;2022-11-15T19:59:24;6.00;99.90
24664;DHT22;12791;50.992;13.788;2022-11-15T20:01:51;6.20;99.90